Time;durP1;ratioP1;P1;durP2;ratioP2;P2;SDS_P1;SDS_P2;PMS_P1;PMS_P2;Temp;Humidity;BMP_temperature;BMP_pressure;BME280_temperature;BME280_humidity;BME280_pressure;Samples;Min_cycle;Max_cycle;Signal;HPM_P1;HPM_P2
2023/09/16 00:00:58;;;;;;;25.83;17.40;;;;;;;23.70;70.37;101385.34;4911133;28;20109;-80
2023/09/16 00:03:28;;;;;;;24.55;17.52;;;;;;;23.74;70.17;101392.03;4921719;28;20145;-82
2023/09/16 00:06:04;;;;;;;30.40;19.05;;;;;;;23.38;70.71;101352.50;4916239;28;20417;-81
2023/09/16 00:08:35;;;;;;;;;;;;;;;23.67;70.69;101400.97;4927559;28;20499;-80
2023/09/16 00:11:02;;;;;;;29.58;16.48;;;;;;;23.76;70.05;101408.94;4932040;28;19948;-80
2023/09/16 00:13:31;;;;;;;24.33;15.68;;;;;;;23.79;69.35;101409.38;4926182;28;20051;-79
2023/09/16 00:15:57;;;;;;;26.08;18.25;;;;;;;23.35;69.66;101347.47;4933165;28;20352;-81
2023/09/16 00:18:24;;;;;;;25.92;17.50;;;;;;;23.56;69.86;101387.97;4915001;28;20855;-79
2023/09/16 00:20:58;;;;;;;24.05;17.25;;;;;;;23.55;70.08;101389.03;4925580;28;20047;-81
2023/09/16 00:23:27;;;;;;;28.52;17.13;;;;;;;23.52;70.04;101381.31;4941394;28;20051;-81
2023/09/16 00:25:55;;;;;;;24.45;16.75;;;;;;;23.51;70.31;101389.63;4931600;28;20162;-82
2023/09/16 00:28:26;;;;;;;24.23;17.77;;;;;;;23.55;69.78;101409.88;4911341;28;20191;-80
2023/09/16 00:30:57;;;;;;;25.67;17.35;;;;;;;22.59;70.11;101270.66;4934083;28;20428;-79
2023/09/16 00:33:27;;;;;;;21.00;15.97;;;;;;;23.41;70.20;101427.94;4892653;28;20047;-80
2023/09/16 00:36:00;;;;;;;29.20;17.80;;;;;;;22.94;70.38;101367.28;4891751;28;20130;-81
2023/09/16 00:38:28;;;;;;;31.75;19.55;;;;;;;23.24;70.76;101422.84;4889512;28;20706;-81
2023/09/16 00:41:00;;;;;;;24.30;16.98;;;;;;;23.00;70.80;101402.50;4905226;28;20363;-81
2023/09/16 00:43:30;;;;;;;25.23;17.70;;;;;;;23.11;70.94;101417.38;4914084;28;20161;-78
2023/09/16 00:45:56;;;;;;;22.02;17.35;;;;;;;23.00;71.17;101410.63;4925278;28;20545;-80
2023/09/16 00:48:27;;;;;;;24.45;18.30;;;;;;;22.76;71.40;101376.72;4914591;28;20398;-80
2023/09/16 00:50:54;;;;;;;26.35;18.13;;;;;;;23.07;71.75;101421.50;4926926;28;20522;-81
2023/09/16 00:53:26;;;;;;;22.70;18.30;;;;;;;22.96;71.93;101408.50;4910207;28;20058;-79
2023/09/16 00:55:53;;;;;;;27.00;18.55;;;;;;;22.70;71.77;101350.47;4928319;28;20062;-80
2023/09/16 00:58:20;;;;;;;25.17;17.38;;;;;;;22.99;71.69;101395.44;4934243;28;20512;-79
2023/09/16 01:00:47;;;;;;;26.30;18.27;;;;;;;23.10;71.57;101421.09;4938483;28;20312;-78
2023/09/16 01:03:18;;;;;;;26.73;17.83;;;;;;;23.13;71.71;101419.88;4904383;28;20126;-80
2023/09/16 01:05:53;;;;;;;25.02;17.50;;;;;;;23.00;71.56;101398.97;4925785;28;20043;-78
2023/09/16 01:08:26;;;;;;;24.63;17.47;;;;;;;23.14;71.29;101422.38;4903186;28;20467;-80
2023/09/16 01:10:53;;;;;;;24.77;18.50;;;;;;;23.20;71.13;101423.47;4918192;28;20140;-81
2023/09/16 01:13:20;;;;;;;27.88;17.83;;;;;;;23.19;71.15;101425.34;4926734;28;20086;-80
2023/09/16 01:15:59;;;;;;;27.70;18.40;;;;;;;22.93;71.14;101381.81;4924120;28;20173;-82
2023/09/16 01:18:35;;;;;;;24.58;18.45;;;;;;;23.15;71.21;101413.22;4913688;28;20426;-82
2023/09/16 01:21:06;;;;;;;33.08;17.55;;;;;;;23.11;71.33;101406.56;4924457;28;20290;-81
2023/09/16 01:23:36;;;;;;;25.38;16.02;;;;;;;23.19;71.37;101403.66;4926981;28;20362;-81
2023/09/16 01:26:04;;;;;;;19.40;14.35;;;;;;;23.33;71.16;101373.94;4914289;28;20054;-82
2023/09/16 01:28:32;;;;;;;26.23;18.88;;;;;;;23.66;70.19;101401.97;4928458;28;20194;-82
2023/09/16 01:31:00;;;;;;;40.90;20.73;;;;;;;23.50;69.64;101387.94;4916703;28;20459;-81
2023/09/16 01:33:43;;;;;;;32.35;19.27;;;;;;;23.03;70.12;101347.13;4926056;28;20505;-80
2023/09/16 01:36:18;;;;;;;29.20;20.77;;;;;;;23.14;70.79;101408.84;4926381;28;20050;-82
2023/09/16 01:38:48;;;;;;;35.22;21.15;;;;;;;23.16;71.04;101431.16;4931355;28;20610;-79
2023/09/16 01:41:19;;;;;;;36.53;22.75;;;;;;;22.99;71.20;101408.16;4926827;28;20086;-81
2023/09/16 01:43:47;;;;;;;33.78;20.10;;;;;;;22.88;71.67;101395.13;4929770;28;20187;-79
2023/09/16 01:46:18;;;;;;;32.58;19.42;;;;;;;22.68;71.56;101352.53;4930863;28;20094;-80
2023/09/16 01:48:45;;;;;;;31.15;20.83;;;;;;;23.14;71.06;101395.31;4925854;28;20530;-80
2023/09/16 01:51:14;;;;;;;29.60;19.08;;;;;;;23.09;70.62;101376.13;4922746;28;20058;-79
2023/09/16 01:53:41;;;;;;;30.85;21.00;;;;;;;23.03;70.83;101375.06;4916357;28;20407;-79
2023/09/16 01:56:08;;;;;;;25.65;16.13;;;;;;;23.10;71.13;101375.06;4931913;28;20053;-79
2023/09/16 01:58:38;;;;;;;28.05;17.85;;;;;;;23.24;70.95;101397.66;4933213;28;20521;-79
2023/09/16 02:01:09;;;;;;;28.00;20.30;;;;;;;23.29;70.42;101399.75;4923538;28;20149;-79
2023/09/16 02:03:36;;;;;;;31.75;20.55;;;;;;;23.23;70.36;101398.69;4920323;28;20365;-83
2023/09/16 02:06:06;;;;;;;34.50;21.27;;;;;;;22.67;70.69;101322.94;4930564;28;20360;-80
2023/09/16 02:08:34;;;;;;;33.38;18.52;;;;;;;22.65;70.89;101335.81;4921702;28;20054;-81
2023/09/16 02:11:01;;;;;;;31.38;21.17;;;;;;;22.87;71.08;101358.28;4917721;28;20266;-79
2023/09/16 02:13:28;;;;;;;35.33;21.42;;;;;;;23.09;70.87;101414.03;4916041;28;20364;-79
2023/09/16 02:15:56;;;;;;;32.13;20.33;;;;;;;23.13;70.92;101420.72;4918067;28;20538;-80
2023/09/16 02:18:24;;;;;;;35.35;22.15;;;;;;;23.05;70.60;101423.59;4901987;28;20450;-80
2023/09/16 02:20:50;;;;;;;28.92;18.73;;;;;;;22.99;70.89;101429.81;4923261;28;20284;-79
2023/09/16 02:23:18;;;;;;;31.95;19.35;;;;;;;22.96;70.93;101438.28;4902599;28;20277;-80
2023/09/16 02:25:45;;;;;;;30.63;21.17;;;;;;;22.87;71.13;101434.06;4903279;28;20889;-80
2023/09/16 02:28:12;;;;;;;41.17;23.98;;;;;;;22.73;71.72;101443.94;4888856;28;20093;-80
2023/09/16 02:30:39;;;;;;;40.33;24.55;;;;;;;22.43;72.15;101408.09;4917442;28;20113;-80
2023/09/16 02:33:06;;;;;;;36.13;23.75;;;;;;;22.52;72.44;101436.69;4922044;28;20502;-83
2023/09/16 02:35:33;;;;;;;40.80;24.58;;;;;;;22.55;72.96;101444.41;4904957;28;20362;-79
2023/09/16 02:38:04;;;;;;;37.72;24.90;;;;;;;22.53;72.62;101441.91;4912202;28;20054;-81
2023/09/16 02:40:43;;;;;;;41.88;24.38;;;;;;;22.55;72.82;101439.84;4911675;28;20054;-81
2023/09/16 02:43:15;;;;;;;45.05;24.88;;;;;;;22.64;72.63;101439.72;4913635;28;20160;-80
2023/09/16 02:45:42;;;;;;;36.13;22.35;;;;;;;22.45;72.73;101384.38;4888423;28;20082;-81
2023/09/16 02:48:17;;;;;;;37.35;24.48;;;;;;;22.89;72.11;101435.53;4889091;28;20051;-81
2023/09/16 02:50:46;;;;;;;51.28;25.10;;;;;;;22.75;71.69;101422.94;4911006;28;20145;-80
2023/09/16 02:53:14;;;;;;;40.25;24.50;;;;;;;22.97;72.16;101437.25;4926244;28;20063;-80
2023/09/16 02:55:45;;;;;;;40.97;24.52;;;;;;;22.88;71.28;101416.78;4908846;28;20058;-81
2023/09/16 02:58:16;;;;;;;49.55;26.80;;;;;;;22.90;70.91;101414.72;4912016;28;20442;-80
2023/09/16 03:00:46;;;;;;;48.15;26.88;;;;;;;22.91;71.01;101424.50;4891958;28;20431;-81
2023/09/16 03:03:14;;;;;;;23.15;15.25;;;;;;;22.59;71.81;101372.66;4915663;28;20197;-80
2023/09/16 03:05:45;;;;;;;49.25;28.08;;;;;;;22.85;71.12;101387.41;4912436;28;20138;-81
2023/09/16 03:08:14;;;;;;;52.47;29.70;;;;;;;23.16;71.05;101408.66;4909426;28;20609;-78
2023/09/16 03:10:47;;;;;;;43.78;25.00;;;;;;;23.16;70.52;101412.19;4928889;28;20782;-80
2023/09/16 03:13:16;;;;;;;53.00;30.52;;;;;;;23.02;70.29;101403.16;4903706;28;20118;-78
2023/09/16 03:16:08;;;;;;;51.00;29.52;;;;;;;22.89;70.49;101392.22;4879364;28;20362;-80
2023/09/16 03:18:40;;;;;;;61.60;32.20;;;;;;;22.52;71.45;101353.66;4893938;28;20062;-80
2023/09/16 03:21:07;;;;;;;42.92;26.83;;;;;;;22.81;71.70;101409.44;4918896;28;20723;-82
2023/09/16 03:23:34;;;;;;;44.85;27.13;;;;;;;22.99;71.97;101418.97;4913060;28;20050;-80
2023/09/16 03:26:05;;;;;;;57.85;32.83;;;;;;;23.13;71.13;101426.16;4919640;28;20079;-80
2023/09/16 03:28:33;;;;;;;61.35;34.17;;;;;;;23.16;71.07;101398.66;4913946;28;20614;-81
2023/09/16 03:31:04;;;;;;;52.10;30.88;;;;;;;23.20;70.39;101405.31;4921592;28;20047;-81
2023/09/16 03:33:34;;;;;;;54.05;32.83;;;;;;;22.93;70.46;101382.66;4925234;28;20046;-80
2023/09/16 03:36:05;;;;;;;56.80;32.72;;;;;;;23.04;70.71;101416.50;4910832;28;20047;-79
2023/09/16 03:38:48;;;;;;;41.70;24.67;;;;;;;22.93;70.92;101398.06;4900490;28;20389;-80
2023/09/16 03:41:25;;;;;;;52.08;29.98;;;;;;;22.94;70.94;101399.75;4926139;28;20177;-80
2023/09/16 03:44:01;;;;;;;48.80;30.63;;;;;;;23.00;70.94;101416.06;4914867;28;20051;-81
2023/09/16 03:46:37;;;;;;;50.75;29.75;;;;;;;22.74;70.95;101383.34;4907985;28;20310;-81
2023/09/16 03:49:07;;;;;;;53.83;29.50;;;;;;;23.00;71.22;101418.75;4901318;28;20050;-80
2023/09/16 03:51:39;;;;;;;51.47;30.50;;;;;;;22.96;70.88;101417.47;4890164;28;20531;-79
2023/09/16 03:54:08;;;;;;;27.60;16.02;;;;;;;22.95;71.32;101410.38;4880416;28;20368;-81
2023/09/16 03:56:36;;;;;;;57.33;31.73;;;;;;;22.74;70.99;101357.13;4895875;28;20090;-81
2023/09/16 03:59:09;;;;;;;49.65;29.52;;;;;;;23.05;70.69;101407.34;4889358;28;20818;-80
2023/09/16 04:01:47;;;;;;;52.95;32.13;;;;;;;23.17;70.43;101421.97;4898680;28;20549;-81
2023/09/16 04:04:18;;;;;;;52.28;30.05;;;;;;;23.08;70.44;101423.19;4892992;28;20058;-80
2023/09/16 04:06:51;;;;;;;52.17;29.88;;;;;;;22.94;70.72;101418.72;4900382;28;20258;-81
2023/09/16 04:09:27;;;;;;;57.80;28.90;;;;;;;22.89;71.16;101423.84;4903567;28;20057;-80
2023/09/16 04:12:00;;;;;;;47.53;28.33;;;;;;;22.73;71.16;101415.00;4909301;28;20169;-80
2023/09/16 04:14:27;;;;;;;44.80;28.75;;;;;;;22.65;71.33;101423.28;4917992;28;20082;-77
2023/09/16 04:16:59;;;;;;;50.85;30.20;;;;;;;22.59;71.87;101440.28;4925791;28;20058;-81
2023/09/16 04:19:27;;;;;;;53.67;29.98;;;;;;;22.47;72.44;101436.44;4921297;28;20813;-80
2023/09/16 04:21:55;;;;;;;53.38;29.67;;;;;;;21.88;72.78;101356.41;4905672;28;20528;-81
2023/09/16 04:24:22;;;;;;;57.08;29.55;;;;;;;22.27;72.74;101426.28;4904257;28;20340;-80
2023/09/16 04:26:49;;;;;;;59.15;30.33;;;;;;;22.17;73.10;101412.22;4904244;28;20553;-79
2023/09/16 04:29:16;;;;;;;56.53;29.90;;;;;;;22.24;73.46;101420.44;4910572;28;20400;-79
2023/09/16 04:31:43;;;;;;;47.78;28.95;;;;;;;22.06;73.62;101402.72;4889569;28;20431;-80
2023/09/16 04:34:10;;;;;;;47.03;28.05;;;;;;;22.23;73.47;101422.28;4888122;28;20517;-80
2023/09/16 04:36:39;;;;;;;52.38;29.13;;;;;;;22.29;73.77;101426.94;4884015;28;20837;-79
2023/09/16 04:39:11;;;;;;;44.45;27.15;;;;;;;22.28;73.42;101417.16;4868815;28;20320;-80
2023/09/16 04:41:43;;;;;;;47.90;28.30;;;;;;;22.25;73.07;101409.41;4890439;28;20051;-80
2023/09/16 04:44:10;;;;;;;28.67;17.88;;;;;;;22.53;73.31;101427.56;4900275;28;20356;-80
2023/09/16 04:46:37;;;;;;;46.80;24.98;;;;;;;22.56;72.23;101414.47;4923779;28;20108;-79
2023/09/16 04:49:04;;;;;;;44.85;24.92;;;;;;;22.57;71.68;101420.69;4906885;28;20054;-81
2023/09/16 04:51:33;;;;;;;42.80;25.40;;;;;;;22.51;72.12;101437.72;4934226;28;20051;-78
2023/09/16 04:54:01;;;;;;;38.63;23.65;;;;;;;22.37;72.50;101431.34;4917421;28;20462;-80
2023/09/16 04:56:32;;;;;;;46.33;25.02;;;;;;;22.00;72.65;101373.78;4901077;28;20634;-82
2023/09/16 04:58:59;;;;;;;39.03;24.70;;;;;;;22.30;72.87;101420.47;4884861;28;20337;-79
2023/09/16 05:01:26;;;;;;;37.78;23.13;;;;;;;22.34;72.65;101420.94;4896447;28;20063;-80
2023/09/16 05:03:54;;;;;;;33.17;21.55;;;;;;;22.32;72.12;101418.41;4929172;28;20074;-81
2023/09/16 05:06:25;;;;;;;35.22;21.02;;;;;;;22.51;72.63;101432.31;4930825;28;20142;-80
2023/09/16 05:08:55;;;;;;;31.75;20.25;;;;;;;22.60;71.97;101421.16;4930682;28;20118;-80
2023/09/16 05:11:26;;;;;;;37.00;24.10;;;;;;;22.54;71.41;101423.81;4928558;28;20077;-82
2023/09/16 05:13:57;;;;;;;38.88;23.02;;;;;;;22.39;71.71;101402.25;4927707;28;20128;-81
2023/09/16 05:16:23;;;;;;;35.77;19.80;;;;;;;22.68;72.25;101432.88;4939478;28;20050;-80
2023/09/16 05:18:51;;;;;;;27.95;18.60;;;;;;;22.90;72.24;101433.66;4933512;28;20158;-79
2023/09/16 05:21:18;;;;;;;37.17;24.73;;;;;;;22.62;70.44;101377.66;4938608;28;20271;-81
2023/09/16 05:23:45;;;;;;;42.22;25.20;;;;;;;22.76;70.70;101425.44;4926521;28;20137;-81
2023/09/16 05:26:16;;;;;;;41.13;23.40;;;;;;;22.85;71.15;101434.25;4913355;28;20377;-82
2023/09/16 05:28:44;;;;;;;40.88;24.60;;;;;;;22.56;71.02;101405.50;4945492;28;20057;-80
2023/09/16 05:31:11;;;;;;;37.40;23.95;;;;;;;22.64;71.23;101443.25;4934863;28;20196;-81
2023/09/16 05:33:38;;;;;;;35.75;23.70;;;;;;;22.47;71.49;101425.63;4939297;28;20138;-80
2023/09/16 05:36:07;;;;;;;40.22;25.10;;;;;;;22.53;71.60;101441.91;4929154;28;20500;-80
2023/09/16 05:38:35;;;;;;;31.95;22.33;;;;;;;22.31;71.38;101403.22;4939054;28;20395;-81
2023/09/16 05:41:03;;;;;;;36.40;23.38;;;;;;;22.57;72.06;101447.75;4923796;28;20057;-79
2023/09/16 05:43:30;;;;;;;39.47;22.33;;;;;;;22.46;71.90;101429.38;4931915;28;20198;-79
2023/09/16 05:45:58;;;;;;;34.47;22.63;;;;;;;22.49;71.97;101435.22;4935160;28;20296;-78
2023/09/16 05:48:25;;;;;;;38.38;21.88;;;;;;;22.59;71.89;101438.41;4933140;28;20585;-80
2023/09/16 05:51:02;;;;;;;35.67;21.08;;;;;;;22.69;71.35;101438.06;4930980;28;20590;-78
2023/09/16 05:53:36;;;;;;;31.85;22.70;;;;;;;22.59;71.31;101413.22;4916316;28;20207;-80
2023/09/16 05:56:06;;;;;;;21.98;14.32;;;;;;;22.59;71.18;101389.72;4923476;28;20166;-81
2023/09/16 05:58:33;;;;;;;41.78;24.30;;;;;;;23.04;70.93;101438.16;4934797;28;20423;-80
2023/09/16 06:01:00;;;;;;;39.10;24.63;;;;;;;23.04;70.93;101421.94;4930176;28;20578;-78
2023/09/16 06:03:27;;;;;;;52.97;27.85;;;;;;;23.08;70.00;101420.47;4930575;28;20320;-81
2023/09/16 06:06:01;;;;;;;44.10;27.73;;;;;;;23.18;70.14;101439.06;4929640;28;20059;-81
2023/09/16 06:08:28;;;;;;;53.20;31.83;;;;;;;23.20;70.20;101432.41;4928807;28;20054;-80
2023/09/16 06:10:58;;;;;;;26.95;17.23;;;;;;;23.21;70.39;101415.16;4922665;28;20490;-81
2023/09/16 06:13:27;;;;;;;48.35;28.13;;;;;;;23.20;69.65;101380.13;4923839;28;20815;-81
2023/09/16 06:15:55;;;;;;;26.77;16.70;;;;;;;23.66;69.30;101448.06;4928318;28;20490;-79
2023/09/16 06:18:22;;;;;;;43.85;26.95;;;;;;;23.32;68.64;101394.75;4923275;28;20402;-80
2023/09/16 06:20:49;;;;;;;80.15;30.60;;;;;;;23.37;68.84;101419.38;4927304;28;20557;-78
2023/09/16 06:23:16;;;;;;;45.20;28.13;;;;;;;23.50;68.97;101431.31;4935365;28;20443;-79
2023/09/16 06:25:43;;;;;;;63.53;29.73;;;;;;;23.51;68.54;101436.53;4919655;28;20416;-78
2023/09/16 06:28:10;;;;;;;51.28;22.95;;;;;;;23.62;69.05;101430.53;4934854;28;20106;-81
2023/09/16 06:30:37;;;;;;;60.70;28.60;;;;;;;23.77;68.26;101445.84;4943165;28;20051;-80
2023/09/16 06:33:04;;;;;;;61.85;30.77;;;;;;;23.75;68.41;101450.63;4931214;28;20058;-81
2023/09/16 06:35:31;;;;;;;65.18;31.65;;;;;;;23.45;68.50;101419.22;4943463;28;20311;-80
2023/09/16 06:37:58;;;;;;;59.85;33.20;;;;;;;23.44;68.89;101414.00;4934325;28;20054;-81
2023/09/16 06:40:25;;;;;;;64.70;31.73;;;;;;;23.71;69.00;101443.91;4940273;28;20051;-77
2023/09/16 06:42:52;;;;;;;100.82;35.42;;;;;;;23.69;69.04;101438.72;4937932;28;20050;-80
2023/09/16 06:45:19;;;;;;;43.25;25.58;;;;;;;23.73;68.95;101426.44;4945989;28;20058;-80
2023/09/16 06:47:50;;;;;;;46.17;22.48;;;;;;;23.66;68.30;101426.38;4950410;28;20055;-78
2023/09/16 06:50:17;;;;;;;41.47;24.45;;;;;;;23.54;68.16;101372.97;4945866;28;20059;-80
2023/09/16 06:52:48;;;;;;;58.78;34.33;;;;;;;24.06;67.33;101431.13;4932117;28;20069;-81
2023/09/16 06:55:17;;;;;;;32.63;19.92;;;;;;;24.15;67.79;101456.16;4933830;28;20339;-81
2023/09/16 06:57:44;;;;;;;24.15;14.40;;;;;;;24.26;67.83;101450.16;4939638;28;20120;-79
2023/09/16 07:00:32;;;;;;;18.92;12.65;;;;;;;24.24;67.81;101441.38;4935019;28;20569;-80
2023/09/16 07:02:59;;;;;;;19.70;14.27;;;;;;;24.41;67.38;101441.81;4937061;28;20129;-81
2023/09/16 07:05:29;;;;;;;41.60;26.27;;;;;;;24.28;66.97;101440.75;4942571;28;20129;-81
2023/09/16 07:08:01;;;;;;;;;;;;;;;24.28;67.09;101445.34;4926388;28;20509;-83
2023/09/16 07:10:28;;;;;;;65.60;33.55;;;;;;;24.12;67.30;101432.16;4935812;28;19933;-82
2023/09/16 07:12:55;;;;;;;61.42;35.10;;;;;;;24.13;67.79;101447.38;4925738;28;20371;-80
2023/09/16 07:15:23;;;;;;;66.68;33.05;;;;;;;24.05;67.87;101457.38;4926396;28;20112;-81
2023/09/16 07:17:51;;;;;;;67.85;34.83;;;;;;;23.98;68.12;101459.28;4933601;28;20067;-81
2023/09/16 07:20:18;;;;;;;64.43;35.45;;;;;;;23.85;68.18;101451.09;4934507;28;20569;-82
2023/09/16 07:22:46;;;;;;;34.28;22.17;;;;;;;23.60;68.67;101412.81;4938292;28;20050;-83
2023/09/16 07:25:16;;;;;;;;;;;;;;;23.93;68.51;101461.75;4945628;28;20307;-79
2023/09/16 07:27:43;;;;;;;58.45;32.55;;;;;;;23.92;68.63;101457.38;4937300;28;19929;-80
2023/09/16 07:30:11;;;;;;;43.60;23.48;;;;;;;24.06;68.44;101464.50;4933219;28;20554;-78
2023/09/16 07:32:38;;;;;;;52.30;30.45;;;;;;;24.07;68.01;101458.03;4936997;28;20279;-76
2023/09/16 07:35:06;;;;;;;63.15;35.42;;;;;;;24.07;67.94;101476.19;4930256;28;20714;-79
2023/09/16 07:37:35;;;;;;;62.72;34.35;;;;;;;23.88;68.47;101469.66;4928335;28;20055;-81
2023/09/16 07:40:02;;;;;;;56.20;32.78;;;;;;;23.70;68.75;101466.66;4943115;28;20291;-80
2023/09/16 07:42:35;;;;;;;59.38;34.65;;;;;;;23.70;69.41;101491.88;4931639;28;20062;-79
2023/09/16 07:45:03;;;;;;;56.70;35.10;;;;;;;23.62;69.58;101495.59;4942053;28;20051;-79
2023/09/16 07:47:32;;;;;;;51.83;32.78;;;;;;;23.40;70.05;101465.06;4939660;28;20800;-78
2023/09/16 07:50:02;;;;;;;34.75;16.42;;;;;;;23.50;70.83;101486.38;4932518;28;20172;-80
2023/09/16 07:52:30;;;;;;;53.45;29.67;;;;;;;23.59;70.41;101478.88;4941626;28;20054;-78
2023/09/16 07:55:02;;;;;;;53.20;30.70;;;;;;;23.48;70.12;101444.25;4929290;28;20762;-78
2023/09/16 07:57:33;;;;;;;53.85;32.03;;;;;;;23.78;69.70;101474.63;4934607;28;20150;-81
2023/09/16 08:00:00;;;;;;;24.08;15.88;;;;;;;23.78;68.95;101433.97;4944829;28;20121;-79
2023/09/16 08:02:27;;;;;;;31.33;16.60;;;;;;;24.21;68.45;101493.34;4930758;28;20055;-79
2023/09/16 08:04:57;;;;;;;50.13;27.95;;;;;;;23.92;68.52;101440.28;4921463;28;20054;-79
2023/09/16 08:07:25;;;;;;;35.22;20.65;;;;;;;24.30;68.21;101487.50;4918692;29;20047;-80
2023/09/16 08:09:58;;;;;;;49.75;28.27;;;;;;;24.24;68.55;101460.38;4916942;28;20610;-79
2023/09/16 08:12:27;;;;;;;57.83;31.67;;;;;;;24.00;68.90;101427.34;4912994;29;20838;-79
2023/09/16 08:14:54;;;;;;;30.33;17.88;;;;;;;24.19;69.52;101474.53;4900743;29;20701;-82
2023/09/16 08:17:25;;;;;;;29.60;17.80;;;;;;;24.28;68.86;101480.63;4893732;28;20139;-80
2023/09/16 08:19:52;;;;;;;52.85;32.25;;;;;;;24.26;69.75;101485.41;4916786;29;20450;-80
2023/09/16 08:22:19;;;;;;;58.85;34.08;;;;;;;24.51;69.42;101500.09;4916420;29;20082;-82
2023/09/16 08:24:46;;;;;;;62.58;35.50;;;;;;;24.48;69.44;101491.53;4911096;29;20145;-79
2023/09/16 08:27:13;;;;;;;30.80;20.25;;;;;;;24.59;69.51;101511.78;4926879;28;20089;-80
2023/09/16 08:29:43;;;;;;;60.67;35.50;;;;;;;24.47;69.75;101492.59;4940169;28;20378;-82
2023/09/16 08:32:12;;;;;;;40.97;24.98;;;;;;;24.51;69.89;101510.94;4929254;28;20054;-81
2023/09/16 08:34:40;;;;;;;19.92;14.60;;;;;;;24.55;69.31;101511.38;4934547;28;20514;-81
2023/09/16 08:37:07;;;;;;;30.75;20.63;;;;;;;24.45;68.37;101473.75;4911286;28;20066;-82
2023/09/16 08:39:35;;;;;;;29.15;17.55;;;;;;;24.83;68.00;101505.75;4905633;28;20070;-80
2023/09/16 08:42:21;;;;;;;39.33;19.45;;;;;;;24.97;67.21;101500.31;4936291;28;20541;-82
2023/09/16 08:44:53;;;;;;;51.47;29.95;;;;;;;24.94;68.08;101512.44;4925090;28;20058;-79
2023/09/16 08:47:28;;;;;;;48.53;29.25;;;;;;;24.78;68.70;101489.25;4900432;29;20077;-83
2023/09/16 08:50:04;;;;;;;25.42;18.23;;;;;;;24.70;68.54;101486.75;4914777;28;20051;-80
2023/09/16 08:52:49;;;;;;;51.00;29.48;;;;;;;24.70;68.68;101492.16;4904781;28;20058;-80
2023/09/16 08:55:18;;;;;;;52.95;30.35;;;;;;;24.63;68.54;101453.31;4904209;28;20126;-80
2023/09/16 08:57:52;;;;;;;39.53;19.38;;;;;;;24.71;68.56;101482.97;4915550;28;20055;-80
2023/09/16 09:00:19;;;;;;;54.55;32.40;;;;;;;24.68;69.64;101502.41;4926105;28;20122;-78
2023/09/16 09:02:48;;;;;;;56.40;31.77;;;;;;;24.51;70.10;101505.50;4929165;28;20599;-82
2023/09/16 09:05:17;;;;;;;54.40;32.78;;;;;;;24.26;70.03;101463.72;4928496;28;20538;-81
2023/09/16 09:07:45;;;;;;;41.55;25.42;;;;;;;24.26;70.92;101490.84;4927553;28;20058;-82
2023/09/16 09:10:13;;;;;;;52.60;23.48;;;;;;;24.38;70.69;101482.94;4918817;28;20081;-79
2023/09/16 09:12:43;;;;;;;57.30;33.25;;;;;;;24.62;70.68;101500.53;4934003;28;20090;-80
2023/09/16 09:15:17;;;;;;;25.48;15.57;;;;;;;24.63;70.88;101507.63;4910976;28;20050;-83
2023/09/16 09:17:58;;;;;;;60.42;31.83;;;;;;;24.62;70.79;101492.38;4898537;28;20707;-82
2023/09/16 09:20:28;;;;;;;53.42;29.75;;;;;;;24.69;70.30;101517.66;4924163;28;20392;-82
2023/09/16 09:22:56;;;;;;;63.20;34.10;;;;;;;24.69;70.94;101520.38;4929611;28;20047;-79
2023/09/16 09:25:25;;;;;;;15.57;11.95;;;;;;;24.70;71.10;101527.47;4930203;28;20051;-81
2023/09/16 09:27:55;;;;;;;46.85;28.38;;;;;;;24.73;72.37;101535.19;4925691;28;20050;-80
2023/09/16 09:30:31;;;;;;;51.80;32.67;;;;;;;24.33;72.05;101461.84;4933784;28;20599;-78
2023/09/16 09:33:03;;;;;;;58.05;32.83;;;;;;;24.50;72.92;101489.44;4933798;28;20503;-83
2023/09/16 09:35:31;;;;;;;60.70;34.92;;;;;;;24.66;72.52;101523.47;4927422;28;20160;-80
2023/09/16 09:37:58;;;;;;;60.08;33.22;;;;;;;24.73;72.88;101525.19;4931454;28;20415;-81
2023/09/16 09:40:29;;;;;;;60.15;35.28;;;;;;;24.52;71.80;101499.06;4926105;28;20359;-82
2023/09/16 09:42:57;;;;;;;52.20;30.95;;;;;;;24.68;73.19;101529.56;4924651;28;20058;-81
2023/09/16 09:45:32;;;;;;;56.80;30.08;;;;;;;24.49;72.61;101501.34;4885994;28;20186;-82
2023/09/16 09:48:18;;;;;;;23.67;17.48;;;;;;;24.62;73.54;101533.09;4932935;28;20090;-80
2023/09/16 09:50:49;;;;;;;25.23;15.27;;;;;;;24.81;72.07;101524.16;4905302;28;20962;-80
2023/09/16 09:53:17;;;;;;;31.58;19.00;;;;;;;24.87;70.37;101481.72;4925407;28;20066;-80
2023/09/16 09:55:44;;;;;;;40.13;22.75;;;;;;;25.37;69.78;101515.56;4932574;28;20454;-81
2023/09/16 09:58:11;;;;;;;17.52;13.18;;;;;;;25.13;67.78;101442.84;4929833;28;20125;-81
2023/09/16 10:00:50;;;;;;;24.20;13.52;;;;;;;25.69;67.62;101503.97;4930609;28;20082;-81
2023/09/16 10:03:18;;;;;;;38.20;24.95;;;;;;;25.79;66.41;101499.72;4929672;28;20054;-82
2023/09/16 10:05:46;;;;;;;24.10;16.33;;;;;;;25.85;66.65;101500.75;4934162;28;20051;-81
2023/09/16 10:08:16;;;;;;;28.38;16.27;;;;;;;25.94;67.03;101498.66;4930545;28;20251;-83
2023/09/16 10:10:54;;;;;;;24.13;16.88;;;;;;;26.30;65.79;101494.47;4916084;28;20043;-76
2023/09/16 10:13:21;;;;;;;36.70;20.85;;;;;;;26.13;66.14;101486.00;4928316;28;20061;-81
2023/09/16 10:15:49;;;;;;;22.90;13.90;;;;;;;26.42;65.05;101500.88;4933407;28;20046;-80
2023/09/16 10:18:21;;;;;;;38.17;22.95;;;;;;;26.75;63.43;101492.50;4932779;28;20050;-81
2023/09/16 10:20:49;;;;;;;22.00;12.77;;;;;;;26.58;63.62;101478.59;4937929;28;20153;-79
2023/09/16 10:23:16;;;;;;;39.97;25.92;;;;;;;26.61;65.45;101496.38;4934659;28;20057;-79
2023/09/16 10:25:43;;;;;;;30.75;19.05;;;;;;;26.62;64.13;101492.59;4935628;28;20191;-79
2023/09/16 10:28:12;;;;;;;24.00;16.10;;;;;;;26.51;63.74;101487.84;4931793;28;20058;-80
2023/09/16 10:30:41;;;;;;;30.85;18.70;;;;;;;26.55;63.61;101503.53;4928938;28;20263;-80
2023/09/16 10:33:09;;;;;;;21.70;13.85;;;;;;;26.54;64.06;101490.16;4925931;28;20097;-80
2023/09/16 10:35:40;;;;;;;23.08;16.27;;;;;;;26.21;63.46;101415.81;4922122;28;20053;-79
2023/09/16 10:38:08;;;;;;;24.83;15.95;;;;;;;26.50;62.84;101454.31;4929528;28;20258;-82
2023/09/16 10:40:39;;;;;;;25.38;17.50;;;;;;;26.66;62.67;101479.38;4921245;28;20058;-80
2023/09/16 10:43:09;;;;;;;;;;;;;;;26.75;63.40;101505.25;4923842;28;20694;-79
2023/09/16 10:45:38;;;;;;;27.85;17.17;;;;;;;26.73;62.93;101489.16;4917735;28;19933;-82
2023/09/16 10:48:06;;;;;;;33.75;19.38;;;;;;;26.84;63.34;101495.75;4934130;28;20074;-76
2023/09/16 10:50:37;;;;;;;36.10;22.07;;;;;;;26.75;63.64;101475.31;4922638;28;20465;-80
2023/09/16 10:53:18;;;;;;;34.13;18.92;;;;;;;27.07;62.18;101490.53;4916672;28;20241;-83
2023/09/16 10:56:02;;;;;;;24.45;16.30;;;;;;;27.32;61.82;101486.94;4876075;28;20479;-82
2023/09/16 10:59:10;;;;;;;14.20;11.18;;;;;;;27.55;59.75;101477.25;4895186;28;20167;-81
2023/09/16 11:02:03;;;;;;;25.85;17.40;;;;;;;27.37;61.32;101489.81;4921365;28;20425;-81
2023/09/16 11:04:37;;;;;;;31.38;18.80;;;;;;;27.45;60.89;101478.63;4908855;28;20051;-81
2023/09/16 11:07:15;;;;;;;23.77;15.13;;;;;;;27.62;59.70;101473.41;4921218;28;20058;-80
2023/09/16 11:09:43;;;;;;;14.35;10.30;;;;;;;27.81;58.35;101467.91;4930323;28;20085;-79
2023/09/16 11:12:15;;;;;;;32.90;21.08;;;;;;;27.69;59.43;101467.84;4902946;28;20478;-78
2023/09/16 11:14:43;;;;;;;;;;;;;;;27.79;61.16;101470.03;4933498;28;20066;-82
2023/09/16 11:17:14;;;;;;;22.40;13.68;;;;;;;27.87;58.87;101470.59;4932516;28;20236;-82
2023/09/16 11:19:42;;;;;;;25.85;17.08;;;;;;;27.81;58.63;101448.81;4924583;28;20530;-83
2023/09/16 11:22:09;;;;;;;13.50;10.93;;;;;;;27.90;58.96;101470.13;4933716;28;20458;-79
2023/09/16 11:24:42;;;;;;;16.65;12.68;;;;;;;28.15;58.42;101466.41;4935697;28;20763;-81